Time;durP1;ratioP1;P1;durP2;ratioP2;P2;SDS_P1;SDS_P2;PMS_P1;PMS_P2;Temp;Humidity;BMP_temperature;BMP_pressure;BME280_temperature;BME280_humidity;BME280_pressure;Samples;Min_cycle;Max_cycle;Signal;HPM_P1;HPM_P2
2021/11/24 00:00:45;;;;;;;21.33;18.57;;;;;21.50;101652.00;;;;2055396;28;20247;-48
2021/11/24 00:01:45;;;;;;;21.53;18.43;;;;;21.50;101650.00;;;;2055129;28;20238;-48
2021/11/24 00:02:46;;;;;;;19.73;17.57;;;;;21.50;101659.00;;;;2055450;28;20219;-47
2021/11/24 00:03:46;;;;;;;19.63;17.53;;;;;21.50;101651.00;;;;2055899;28;20306;-47
2021/11/24 00:04:47;;;;;;;21.10;17.00;;;;;21.50;101642.00;;;;2056002;28;20461;-47
2021/11/24 00:05:47;;;;;;;22.73;18.83;;;;;21.50;101654.00;;;;2056280;28;20219;-47
2021/11/24 00:06:47;;;;;;;20.10;17.77;;;;;21.50;101641.00;;;;2055720;28;20216;-46
2021/11/24 00:07:48;;;;;;;21.60;18.53;;;;;21.50;101643.00;;;;2055962;28;20238;-47
2021/11/24 00:08:49;;;;;;;22.20;18.83;;;;;21.50;101649.00;;;;2056024;28;21094;-47
2021/11/24 00:09:50;;;;;;;21.35;17.73;;;;;21.40;101646.00;;;;2056177;28;20211;-47
2021/11/24 00:10:50;;;;;;;21.03;18.77;;;;;21.40;101647.00;;;;2054852;28;20228;-47
2021/11/24 00:11:51;;;;;;;20.13;17.53;;;;;21.40;101637.00;;;;2055934;28;20212;-47
2021/11/24 00:12:52;;;;;;;24.10;18.80;;;;;21.50;101641.00;;;;2055867;28;20215;-47
2021/11/24 00:13:52;;;;;;;19.83;17.63;;;;;21.40;101631.00;;;;2055113;28;20235;-48
2021/11/24 00:14:53;;;;;;;22.97;18.40;;;;;21.40;101637.00;;;;2055158;28;20215;-47
2021/11/24 00:15:53;;;;;;;20.90;18.60;;;;;21.40;101636.00;;;;2056157;28;20686;-47
2021/11/24 00:16:53;;;;;;;20.93;17.00;;;;;21.40;101635.00;;;;2056091;28;21089;-47
2021/11/24 00:17:54;;;;;;;21.23;18.20;;;;;21.40;101635.00;;;;2055027;28;20227;-47
2021/11/24 00:18:54;;;;;;;22.13;18.50;;;;;21.40;101636.00;;;;2055067;28;20219;-47
2021/11/24 00:19:54;;;;;;;23.20;17.93;;;;;21.40;101631.00;;;;2054677;28;20262;-47
2021/11/24 00:20:55;;;;;;;23.53;17.77;;;;;21.40;101638.00;;;;2052045;28;20330;-47
2021/11/24 00:21:55;;;;;;;19.43;17.30;;;;;21.40;101627.00;;;;2054907;28;20318;-46
2021/11/24 00:22:55;;;;;;;20.43;16.70;;;;;21.40;101635.00;;;;2055301;28;20278;-47
2021/11/24 00:23:56;;;;;;;23.13;18.07;;;;;21.40;101643.00;;;;2055587;28;20204;-47
2021/11/24 00:24:56;;;;;;;20.60;18.10;;;;;21.40;101637.00;;;;2055767;28;20731;-47
2021/11/24 00:25:57;;;;;;;21.07;18.27;;;;;21.40;101625.00;;;;2055678;28;20715;-46
2021/11/24 00:26:58;;;;;;;21.10;17.10;;;;;21.40;101627.00;;;;2055783;28;20286;-47
2021/11/24 00:27:58;;;;;;;21.15;18.10;;;;;21.40;101629.00;;;;2050748;28;20226;-47
2021/11/24 00:28:59;;;;;;;19.00;16.50;;;;;21.40;101634.00;;;;2055368;28;20212;-47
2021/11/24 00:29:59;;;;;;;24.33;18.43;;;;;21.30;101624.00;;;;2055289;28;20270;-47
2021/11/24 00:31:00;;;;;;;20.73;16.80;;;;;21.30;101621.00;;;;2054275;28;20224;-47
2021/11/24 00:32:01;;;;;;;19.50;16.73;;;;;21.30;101625.00;;;;2053250;28;20588;-48
2021/11/24 00:33:01;;;;;;;22.40;18.27;;;;;21.40;101626.00;;;;2055078;28;20220;-48
2021/11/24 00:34:02;;;;;;;22.53;17.80;;;;;21.40;101626.00;;;;2055350;28;20219;-47
2021/11/24 00:35:03;;;;;;;21.40;17.27;;;;;21.30;101616.00;;;;2054998;28;20218;-48
2021/11/24 00:36:05;;;;;;;22.33;17.02;;;;;21.30;101623.00;;;;2052974;28;20684;-48
2021/11/24 00:37:05;;;;;;;22.98;18.20;;;;;21.40;101621.00;;;;2054966;28;20699;-47
2021/11/24 00:38:06;;;;;;;20.10;16.97;;;;;21.30;101619.00;;;;2055614;28;20215;-47
2021/11/24 00:39:06;;;;;;;20.47;17.37;;;;;21.30;101624.00;;;;2051856;28;21293;-47
2021/11/24 00:40:07;;;;;;;22.17;17.80;;;;;21.30;101629.00;;;;2055620;28;20688;-47
2021/11/24 00:41:07;;;;;;;21.03;17.90;;;;;21.30;101620.00;;;;2053898;28;20238;-46
2021/11/24 00:42:08;;;;;;;22.73;17.57;;;;;21.30;101626.00;;;;2054794;28;20238;-48
2021/11/24 00:43:08;;;;;;;19.73;17.30;;;;;21.30;101627.00;;;;2055078;28;20223;-48
2021/11/24 00:44:08;;;;;;;21.73;17.67;;;;;21.30;101619.00;;;;2054940;28;20219;-48
2021/11/24 00:45:09;;;;;;;24.40;18.53;;;;;21.30;101624.00;;;;2055156;28;20270;-48
2021/11/24 00:46:10;;;;;;;21.23;17.30;;;;;21.20;101625.00;;;;2047591;28;20294;-47
2021/11/24 00:47:10;;;;;;;18.27;16.17;;;;;21.30;101626.00;;;;2039161;29;20224;-48
2021/11/24 00:48:11;;;;;;;22.63;16.53;;;;;21.30;101625.00;;;;2054773;28;20203;-48
2021/11/24 00:49:11;;;;;;;22.27;18.00;;;;;21.30;101626.00;;;;2055709;28;20222;-48
2021/11/24 00:50:11;;;;;;;22.33;17.90;;;;;21.30;101620.00;;;;2055468;28;20220;-48
2021/11/24 00:51:12;;;;;;;22.30;18.03;;;;;21.30;101618.00;;;;2053679;28;20220;-48
2021/11/24 00:52:12;;;;;;;22.40;17.60;;;;;21.30;101619.00;;;;2055656;28;20711;-47
2021/11/24 00:53:14;;;;;;;19.53;16.43;;;;;21.20;101612.00;;;;2054932;28;20700;-48
2021/11/24 00:54:15;;;;;;;19.33;17.23;;;;;21.20;101622.00;;;;2055137;28;20298;-48
2021/11/24 00:55:15;;;;;;;23.10;16.87;;;;;21.20;101623.00;;;;2054889;28;20219;-47
2021/11/24 00:56:16;;;;;;;20.73;16.97;;;;;21.20;101623.00;;;;2055455;28;20215;-48
2021/11/24 00:57:17;;;;;;;20.83;17.40;;;;;21.30;101623.00;;;;2055770;28;20462;-47
2021/11/24 00:58:19;;;;;;;22.03;17.80;;;;;21.20;101616.00;;;;2054555;28;20311;-48
2021/11/24 00:59:19;;;;;;;22.40;17.77;;;;;21.20;101618.00;;;;2051021;28;20458;-50
2021/11/24 01:00:20;;;;;;;20.33;17.40;;;;;21.20;101619.00;;;;2055139;28;20219;-49
2021/11/24 01:01:20;;;;;;;21.10;16.83;;;;;21.20;101619.00;;;;2055178;28;20819;-49
2021/11/24 01:02:20;;;;;;;21.37;17.90;;;;;21.20;101613.00;;;;2055369;28;20233;-47
2021/11/24 01:03:21;;;;;;;21.60;17.53;;;;;21.20;101614.00;;;;2055437;28;20243;-49
2021/11/24 01:04:22;;;;;;;23.20;18.30;;;;;21.20;101613.00;;;;2055363;28;20606;-48
2021/11/24 01:05:22;;;;;;;21.70;16.90;;;;;21.20;101614.00;;;;2053572;28;20282;-48
2021/11/24 01:06:23;;;;;;;22.23;17.77;;;;;21.20;101614.00;;;;2055375;28;20219;-48
2021/11/24 01:07:23;;;;;;;23.60;17.63;;;;;21.20;101616.00;;;;2054951;28;20220;-47
2021/11/24 01:08:24;;;;;;;24.10;17.53;;;;;21.20;101617.00;;;;2055198;28;20572;-48
2021/11/24 01:09:24;;;;;;;22.97;17.20;;;;;21.20;101603.00;;;;2053311;28;20786;-48
2021/11/24 01:10:25;;;;;;;21.70;17.50;;;;;21.20;101608.00;;;;2053886;28;20231;-46
2021/11/24 01:11:25;;;;;;;19.53;15.83;;;;;21.10;101606.00;;;;2054770;28;20291;-48
2021/11/24 01:12:26;;;;;;;20.70;16.90;;;;;21.20;101613.00;;;;2055409;28;20219;-48
2021/11/24 01:13:26;;;;;;;24.00;18.37;;;;;21.20;101616.00;;;;2051862;28;20585;-48
2021/11/24 01:14:27;;;;;;;25.90;18.37;;;;;21.20;101604.00;;;;2054927;28;20285;-48
2021/11/24 01:15:28;;;;;;;25.08;17.77;;;;;21.20;101603.00;;;;2054117;28;20294;-50
2021/11/24 01:16:28;;;;;;;22.03;17.67;;;;;21.20;101597.00;;;;2054499;28;20211;-47
2021/11/24 01:17:29;;;;;;;20.93;17.67;;;;;21.20;101598.00;;;;2055228;28;20216;-48
2021/11/24 01:18:30;;;;;;;23.23;17.38;;;;;21.20;101601.00;;;;2054468;28;20267;-47
2021/11/24 01:19:30;;;;;;;20.13;16.53;;;;;21.20;101600.00;;;;2054753;28;20211;-48
2021/11/24 01:20:31;;;;;;;22.37;17.77;;;;;21.20;101590.00;;;;2054718;28;20223;-48
2021/11/24 01:21:31;;;;;;;23.83;17.90;;;;;21.10;101602.00;;;;2055390;28;20273;-48
2021/11/24 01:22:31;;;;;;;21.17;17.20;;;;;21.10;101599.00;;;;2055416;28;20262;-48
2021/11/24 01:23:32;;;;;;;23.53;17.37;;;;;21.20;101605.00;;;;2055727;28;20211;-47
2021/11/24 01:24:32;;;;;;;22.90;16.20;;;;;21.20;101604.00;;;;2054221;28;20227;-48
2021/11/24 01:25:33;;;;;;;24.07;17.23;;;;;21.10;101603.00;;;;2054599;28;20267;-48
2021/11/24 01:26:33;;;;;;;22.43;17.17;;;;;21.10;101602.00;;;;2054770;28;20926;-48
2021/11/24 01:27:33;;;;;;;22.40;16.97;;;;;21.10;101599.00;;;;2055002;28;20602;-48
2021/11/24 01:28:34;;;;;;;24.07;17.27;;;;;21.10;101599.00;;;;2055531;28;20203;-48
2021/11/24 01:29:34;;;;;;;20.13;16.50;;;;;21.10;101605.00;;;;2053968;28;21306;-48
2021/11/24 01:30:35;;;;;;;22.10;17.57;;;;;21.10;101593.00;;;;2054423;28;20238;-48
2021/11/24 01:31:36;;;;;;;19.83;16.13;;;;;21.10;101598.00;;;;2053638;28;20226;-47
2021/11/24 01:32:37;;;;;;;24.73;17.70;;;;;21.10;101599.00;;;;2055382;28;20215;-47
2021/11/24 01:33:37;;;;;;;23.43;17.10;;;;;21.10;101596.00;;;;2055080;28;20223;-48
2021/11/24 01:34:38;;;;;;;23.13;17.97;;;;;21.10;101607.00;;;;2055660;28;20216;-48
2021/11/24 01:35:38;;;;;;;23.13;17.37;;;;;21.10;101599.00;;;;2055207;28;20250;-48
2021/11/24 01:36:38;;;;;;;19.10;15.80;;;;;21.10;101595.00;;;;2052480;28;20235;-48
2021/11/24 01:37:39;;;;;;;23.97;18.07;;;;;21.10;101598.00;;;;2051839;28;20223;-48
2021/11/24 01:38:39;;;;;;;20.80;17.00;;;;;21.10;101591.00;;;;2054327;28;20266;-48
2021/11/24 01:39:40;;;;;;;23.73;17.07;;;;;21.00;101594.00;;;;2055307;28;20557;-47
2021/11/24 01:40:40;;;;;;;20.07;16.40;;;;;21.00;101592.00;;;;2050664;28;20215;-48
2021/11/24 01:41:42;;;;;;;21.90;16.60;;;;;21.10;101588.00;;;;2047295;28;20222;-47
2021/11/24 01:42:43;;;;;;;24.27;17.33;;;;;21.10;101593.00;;;;2054414;28;20296;-47
2021/11/24 01:43:43;;;;;;;20.83;16.27;;;;;21.10;101581.00;;;;2054481;28;20215;-47
2021/11/24 01:44:43;;;;;;;19.30;16.23;;;;;21.10;101586.00;;;;2054216;28;20766;-47
2021/11/24 01:45:44;;;;;;;25.13;16.80;;;;;21.10;101590.00;;;;2055438;28;20203;-48
2021/11/24 01:46:50;;;;;;;24.20;16.50;;;;;21.10;101591.00;;;;2054112;28;20299;-48
2021/11/24 01:47:50;;;;;;;25.02;16.95;;;;;21.00;101593.00;;;;2055185;28;20243;-48
2021/11/24 01:48:51;;;;;;;22.70;16.70;;;;;21.10;101595.00;;;;2055190;28;20224;-48
2021/11/24 01:49:51;;;;;;;21.37;15.67;;;;;21.10;101594.00;;;;2055147;28;20225;-48
2021/11/24 01:50:52;;;;;;;21.20;15.77;;;;;21.10;101595.00;;;;2054031;28;20222;-47
2021/11/24 01:51:52;;;;;;;21.80;17.30;;;;;21.10;101596.00;;;;2054888;28;20660;-48
2021/11/24 01:52:52;;;;;;;19.97;16.30;;;;;21.10;101594.00;;;;2054817;28;20223;-48
2021/11/24 01:53:55;;;;;;;18.60;15.40;;;;;21.00;101592.00;;;;2055464;28;20219;-48
2021/11/24 01:54:56;;;;;;;24.33;17.17;;;;;21.10;101588.00;;;;2052552;28;20234;-47
2021/11/24 01:55:56;;;;;;;19.50;15.43;;;;;21.10;101586.00;;;;2054299;28;20219;-48
2021/11/24 01:56:57;;;;;;;20.90;16.50;;;;;21.00;101600.00;;;;2045017;29;20252;-48
2021/11/24 01:57:57;;;;;;;24.30;18.37;;;;;21.00;101595.00;;;;2045765;29;20979;-50
2021/11/24 01:58:57;;;;;;;21.17;16.67;;;;;21.00;101588.00;;;;2054808;28;20644;-50
2021/11/24 01:59:58;;;;;;;21.03;17.13;;;;;21.00;101593.00;;;;2054836;28;20243;-48
2021/11/24 02:00:59;;;;;;;21.93;16.90;;;;;21.10;101589.00;;;;2054032;28;20226;-48
2021/11/24 02:01:59;;;;;;;23.43;16.63;;;;;21.00;101589.00;;;;2054615;28;20311;-48
2021/11/24 02:03:03;;;;;;;25.47;17.30;;;;;21.00;101580.00;;;;2054776;28;20664;-47
2021/11/24 02:04:04;;;;;;;23.10;16.88;;;;;21.00;101581.00;;;;2046387;29;20637;-48
2021/11/24 02:05:05;;;;;;;21.23;16.23;;;;;21.00;101582.00;;;;2045845;28;20240;-48
2021/11/24 02:06:05;;;;;;;21.13;16.70;;;;;21.00;101580.00;;;;2054425;28;20224;-48
2021/11/24 02:07:05;;;;;;;22.00;16.33;;;;;21.00;101578.00;;;;2054050;28;20696;-48
2021/11/24 02:08:06;;;;;;;24.67;16.97;;;;;21.00;101580.00;;;;2054919;28;20259;-48
2021/11/24 02:09:07;;;;;;;22.93;16.23;;;;;21.00;101581.00;;;;2052950;28;20223;-48
2021/11/24 02:10:07;;;;;;;22.83;16.30;;;;;21.00;101574.00;;;;2054745;28;20517;-48
2021/11/24 02:11:08;;;;;;;20.77;16.27;;;;;21.00;101581.00;;;;2053650;28;20298;-48
2021/11/24 02:12:09;;;;;;;22.77;17.70;;;;;21.00;101573.00;;;;2037786;29;20225;-48
2021/11/24 02:13:09;;;;;;;21.23;16.57;;;;;21.00;101573.00;;;;2038436;29;20240;-48
2021/11/24 02:14:10;;;;;;;20.90;15.80;;;;;21.00;101568.00;;;;2052013;28;20838;-48
2021/11/24 02:15:10;;;;;;;21.40;16.17;;;;;20.90;101570.00;;;;2054713;28;20247;-48
2021/11/24 02:16:11;;;;;;;24.70;16.83;;;;;21.00;101570.00;;;;2054468;28;20240;-48
2021/11/24 02:17:15;;;;;;;21.83;16.07;;;;;21.00;101579.00;;;;2054784;28;20228;-48
2021/11/24 02:18:15;;;;;;;25.25;18.42;;;;;21.00;101565.00;;;;2055025;28;20474;-48
2021/11/24 02:19:16;;;;;;;23.70;17.87;;;;;21.00;101566.00;;;;2054977;28;20208;-47
2021/11/24 02:20:17;;;;;;;23.97;17.23;;;;;21.00;101565.00;;;;2054686;28;20206;-46
2021/11/24 02:21:19;;;;;;;23.00;16.75;;;;;21.00;101565.00;;;;2054336;28;20212;-48
2021/11/24 02:22:19;;;;;;;23.80;16.98;;;;;20.90;101566.00;;;;2054677;28;20246;-48
2021/11/24 02:23:20;;;;;;;27.40;17.30;;;;;20.90;101559.00;;;;2054867;28;20758;-47
2021/11/24 02:24:23;;;;;;;22.63;17.33;;;;;21.00;101560.00;;;;2054832;28;20707;-48
2021/11/24 02:25:23;;;;;;;23.05;17.40;;;;;20.90;101553.00;;;;2054919;28;20235;-48
2021/11/24 02:26:25;;;;;;;24.07;18.00;;;;;21.00;101546.00;;;;2054775;28;20323;-48
2021/11/24 02:27:25;;;;;;;23.73;16.70;;;;;21.00;101544.00;;;;2051148;28;20478;-48
2021/11/24 02:28:26;;;;;;;22.57;17.00;;;;;21.00;101549.00;;;;2054470;28;20634;-48
2021/11/24 02:29:27;;;;;;;21.43;16.63;;;;;20.90;101543.00;;;;2054291;28;20730;-48
2021/11/24 02:30:29;;;;;;;25.27;17.75;;;;;20.90;101533.00;;;;2051747;28;20219;-48
2021/11/24 02:31:30;;;;;;;24.05;17.45;;;;;20.90;101539.00;;;;2052346;28;20282;-48
2021/11/24 02:32:30;;;;;;;25.17;17.10;;;;;20.90;101541.00;;;;2054373;28;20703;-47
2021/11/24 02:33:32;;;;;;;27.40;17.33;;;;;20.90;101539.00;;;;2054475;28;20227;-48
2021/11/24 02:34:32;;;;;;;21.70;16.85;;;;;20.90;101541.00;;;;2054039;28;20226;-48
2021/11/24 02:35:32;;;;;;;21.10;16.87;;;;;20.90;101544.00;;;;2053699;28;20715;-48
2021/11/24 02:36:33;;;;;;;22.50;17.23;;;;;20.90;101537.00;;;;2053452;28;20602;-50
2021/11/24 02:37:33;;;;;;;25.63;16.77;;;;;20.90;101540.00;;;;2051684;28;20243;-52
2021/11/24 02:38:33;;;;;;;26.70;18.43;;;;;20.90;101541.00;;;;2052733;28;20227;-50
2021/11/24 02:39:34;;;;;;;24.70;17.80;;;;;20.90;101549.00;;;;2054465;28;20230;-50
2021/11/24 02:40:34;;;;;;;26.60;17.83;;;;;20.90;101534.00;;;;2053414;28;21171;-48
2021/11/24 02:41:35;;;;;;;25.60;18.47;;;;;20.90;101536.00;;;;2054285;28;20727;-49
2021/11/24 02:42:38;;;;;;;23.00;17.58;;;;;20.90;101535.00;;;;2053173;28;20226;-47
2021/11/24 02:43:38;;;;;;;23.08;17.42;;;;;20.90;101533.00;;;;2054135;28;20347;-48
2021/11/24 02:44:40;;;;;;;22.60;16.77;;;;;20.90;101540.00;;;;2054485;28;20735;-48
2021/11/24 02:45:41;;;;;;;26.52;17.77;;;;;20.90;101537.00;;;;2054484;28;20219;-47
2021/11/24 02:46:41;;;;;;;25.50;18.30;;;;;20.90;101535.00;;;;2054567;28;20215;-48
2021/11/24 02:47:42;;;;;;;27.83;18.30;;;;;20.90;101529.00;;;;2054548;28;20211;-48
2021/11/24 02:48:42;;;;;;;27.87;18.77;;;;;20.90;101531.00;;;;2054239;28;20911;-48
2021/11/24 02:49:44;;;;;;;25.27;18.60;;;;;20.90;101524.00;;;;2054546;28;20212;-48
2021/11/24 02:50:45;;;;;;;25.42;17.85;;;;;20.90;101529.00;;;;2053381;28;20282;-48
2021/11/24 02:51:45;;;;;;;23.77;16.67;;;;;20.90;101530.00;;;;2054762;28;20227;-48
2021/11/24 02:52:46;;;;;;;25.00;18.27;;;;;20.90;101537.00;;;;2054475;28;20223;-48
2021/11/24 02:53:46;;;;;;;24.43;18.17;;;;;20.90;101525.00;;;;2054897;28;20699;-48
2021/11/24 02:54:58;;;;;;;26.77;19.40;;;;;20.80;101524.00;;;;2054594;28;20610;-48
2021/11/24 02:55:58;;;;;;;26.35;17.25;;;;;20.80;101530.00;;;;2054772;28;20219;-48
2021/11/24 02:57:00;;;;;;;24.90;16.97;;;;;20.80;101525.00;;;;2053167;28;20218;-48
2021/11/24 02:58:01;;;;;;;25.95;17.80;;;;;20.80;101516.00;;;;2053407;28;20330;-48
2021/11/24 02:59:01;;;;;;;24.93;18.60;;;;;20.80;101514.00;;;;2054793;28;20234;-48
2021/11/24 03:00:22;;;;;;;25.57;17.57;;;;;20.90;101524.00;;;;2054196;28;20235;-47
2021/11/24 03:01:23;;;;;;;25.75;17.75;;;;;20.90;101523.00;;;;2052695;28;20207;-48
2021/11/24 03:02:26;;;;;;;28.17;18.80;;;;;20.80;101519.00;;;;2052797;28;20204;-48
2021/11/24 03:03:27;;;;;;;26.45;17.95;;;;;20.80;101515.00;;;;2053990;28;20219;-48
2021/11/24 03:04:29;;;;;;;25.83;18.20;;;;;20.80;101518.00;;;;2053957;28;20231;-47
2021/11/24 03:05:31;;;;;;;28.88;18.63;;;;;20.80;101509.00;;;;2037994;29;20284;-48
2021/11/24 03:06:31;;;;;;;30.42;19.00;;;;;20.90;101508.00;;;;2045232;28;20216;-48
2021/11/24 03:07:32;;;;;;;25.10;17.90;;;;;20.80;101517.00;;;;2054539;28;20643;-47
2021/11/24 03:08:32;;;;;;;26.43;17.63;;;;;20.80;101510.00;;;;2054598;28;20211;-48
2021/11/24 03:09:32;;;;;;;25.53;17.57;;;;;20.90;101502.00;;;;2054223;28;20293;-48
2021/11/24 03:10:33;;;;;;;30.13;19.33;;;;;20.80;101509.00;;;;2053432;28;20251;-47
2021/11/24 03:11:33;;;;;;;27.13;18.80;;;;;20.80;101498.00;;;;2054082;28;20222;-48
2021/11/24 03:12:34;;;;;;;24.10;18.30;;;;;20.90;101506.00;;;;2054200;28;20216;-48
2021/11/24 03:13:35;;;;;;;26.50;17.83;;;;;20.80;101501.00;;;;2049758;28;20224;-47
2021/11/24 03:14:35;;;;;;;28.50;18.40;;;;;20.80;101502.00;;;;2054384;28;20696;-47
2021/11/24 03:15:35;;;;;;;24.40;18.03;;;;;20.80;101506.00;;;;2053341;28;20433;-47
2021/11/24 03:16:36;;;;;;;27.63;17.80;;;;;20.80;101491.00;;;;2054965;28;20211;-48
2021/11/24 03:17:36;;;;;;;23.97;17.73;;;;;20.80;101499.00;;;;2054915;28;20218;-48
2021/11/24 03:18:37;;;;;;;24.80;18.37;;;;;20.80;101490.00;;;;2056280;28;20315;-48
2021/11/24 03:19:37;;;;;;;27.30;17.50;;;;;20.80;101497.00;;;;2056286;28;20451;-48
2021/11/24 03:20:37;;;;;;;26.07;17.57;;;;;20.80;101495.00;;;;2054963;28;20207;-48
2021/11/24 03:21:40;;;;;;;27.33;18.07;;;;;20.80;101498.00;;;;2055824;28;20232;-48
2021/11/24 03:22:41;;;;;;;25.23;18.08;;;;;20.80;101490.00;;;;2050714;28;20266;-49
2021/11/24 03:23:41;;;;;;;25.67;17.70;;;;;20.80;101488.00;;;;2055756;28;20215;-48
2021/11/24 03:24:42;;;;;;;26.43;17.63;;;;;20.80;101494.00;;;;2055689;28;20258;-48
2021/11/24 03:25:43;;;;;;;26.58;18.00;;;;;20.80;101486.00;;;;2056449;28;20259;-47
2021/11/24 03:26:43;;;;;;;31.13;19.30;;;;;20.80;101494.00;;;;2056299;28;20711;-48
2021/11/24 03:27:44;;;;;;;27.07;18.20;;;;;20.80;101485.00;;;;2056338;28;20711;-47
2021/11/24 03:28:44;;;;;;;27.30;19.00;;;;;20.80;101480.00;;;;2056232;28;20261;-47
2021/11/24 03:29:45;;;;;;;26.57;18.60;;;;;20.80;101480.00;;;;2056392;28;20450;-48
2021/11/24 03:30:45;;;;;;;26.50;18.33;;;;;20.80;101482.00;;;;2054043;28;20222;-47
2021/11/24 03:31:45;;;;;;;27.80;19.30;;;;;20.70;101475.00;;;;2056511;28;20224;-48
2021/11/24 03:32:46;;;;;;;28.83;19.00;;;;;20.70;101479.00;;;;2054575;28;20212;-48
2021/11/24 03:33:46;;;;;;;27.30;18.03;;;;;20.70;101479.00;;;;2055650;28;20242;-48
2021/11/24 03:34:46;;;;;;;26.50;19.23;;;;;20.70;101466.00;;;;2055641;28;20211;-48
2021/11/24 03:35:47;;;;;;;27.50;19.23;;;;;20.70;101480.00;;;;2054910;28;20219;-48
2021/11/24 03:36:48;;;;;;;27.60;18.67;;;;;20.80;101476.00;;;;2055793;28;20203;-48
2021/11/24 03:37:50;;;;;;;28.80;18.27;;;;;20.70;101474.00;;;;2055622;28;20219;-48
2021/11/24 03:38:51;;;;;;;24.67;17.08;;;;;20.70;101470.00;;;;2055694;28;20470;-48
2021/11/24 03:39:52;;;;;;;26.30;18.30;;;;;20.70;101470.00;;;;2055380;28;20215;-48
2021/11/24 03:40:53;;;;;;;27.98;19.40;;;;;20.70;101465.00;;;;2054722;28;20748;-48
2021/11/24 03:41:55;;;;;;;25.10;17.90;;;;;20.70;101456.00;;;;2055252;28;20365;-48
2021/11/24 03:42:57;;;;;;;25.55;18.77;;;;;20.70;101459.00;;;;2047308;28;20344;-48
2021/11/24 03:43:58;;;;;;;27.67;18.73;;;;;20.70;101460.00;;;;2047556;28;20216;-48
2021/11/24 03:44:59;;;;;;;32.60;19.00;;;;;20.70;101453.00;;;;2047610;28;20685;-48
2021/11/24 03:45:59;;;;;;;27.25;18.52;;;;;20.70;101461.00;;;;2053560;28;20215;-47
2021/11/24 03:47:00;;;;;;;31.80;19.07;;;;;20.70;101455.00;;;;2055554;28;20770;-48
2021/11/24 03:48:01;;;;;;;28.07;18.60;;;;;20.70;101447.00;;;;2055285;28;20212;-48
2021/11/24 03:49:01;;;;;;;27.00;18.93;;;;;20.70;101445.00;;;;2055975;28;20212;-48
2021/11/24 03:50:03;;;;;;;28.30;18.17;;;;;20.70;101444.00;;;;2055906;28;20479;-48
2021/11/24 03:51:03;;;;;;;29.50;18.70;;;;;20.70;101440.00;;;;2054679;28;20216;-48
2021/11/24 03:52:04;;;;;;;27.50;18.60;;;;;20.70;101447.00;;;;2053079;28;20393;-48
2021/11/24 03:53:04;;;;;;;29.70;20.80;;;;;20.80;101446.00;;;;2055728;28;20231;-48
2021/11/24 03:54:05;;;;;;;29.37;19.93;;;;;20.70;101448.00;;;;2056172;28;20322;-48
2021/11/24 03:55:06;;;;;;;27.30;19.57;;;;;20.70;101444.00;;;;2056125;28;20239;-48
2021/11/24 03:56:08;;;;;;;25.63;17.65;;;;;20.70;101449.00;;;;2054676;28;20208;-48
2021/11/24 03:57:09;;;;;;;27.60;19.17;;;;;20.70;101452.00;;;;2055982;28;20216;-48
2021/11/24 03:58:09;;;;;;;28.47;19.00;;;;;20.70;101445.00;;;;2055915;28;20634;-48
2021/11/24 03:59:09;;;;;;;28.10;18.53;;;;;20.70;101453.00;;;;2056102;28;20505;-48
2021/11/24 04:00:17;;;;;;;24.37;18.40;;;;;20.70;101445.00;;;;2052954;28;20231;-47
2021/11/24 04:01:18;;;;;;;28.92;18.67;;;;;20.70;101446.00;;;;2055103;28;20211;-48
2021/11/24 04:02:18;;;;;;;26.53;18.00;;;;;20.70;101448.00;;;;2055612;28;20240;-48
2021/11/24 04:03:18;;;;;;;31.33;18.83;;;;;20.70;101445.00;;;;2055064;28;20219;-48
2021/11/24 04:04:19;;;;;;;25.80;16.50;;;;;20.60;101435.00;;;;2055457;28;20215;-48
2021/11/24 04:05:19;;;;;;;29.37;19.20;;;;;20.60;101444.00;;;;2055843;28;20238;-48
2021/11/24 04:06:19;;;;;;;28.93;19.17;;;;;20.70;101440.00;;;;2056058;28;20207;-47
2021/11/24 04:07:20;;;;;;;27.33;18.63;;;;;20.70;101444.00;;;;2054622;28;20219;-48
2021/11/24 04:08:21;;;;;;;28.13;19.33;;;;;20.70;101447.00;;;;2056150;28;20285;-48
2021/11/24 04:09:21;;;;;;;30.00;19.47;;;;;20.60;101441.00;;;;2056025;28;20212;-47
2021/11/24 04:10:21;;;;;;;32.30;20.20;;;;;20.60;101442.00;;;;2055411;28;20852;-47
2021/11/24 04:11:22;;;;;;;27.83;19.43;;;;;20.60;101443.00;;;;2054762;28;20597;-48
2021/11/24 04:12:22;;;;;;;32.20;20.30;;;;;20.70;101446.00;;;;2055363;28;20214;-47
2021/11/24 04:13:22;;;;;;;31.50;20.23;;;;;20.70;101432.00;;;;2055875;28;20212;-48
2021/11/24 04:14:23;;;;;;;29.37;18.30;;;;;20.60;101437.00;;;;2056013;28;20215;-47
2021/11/24 04:15:23;;;;;;;30.10;19.40;;;;;20.60;101437.00;;;;2051676;28;20262;-48
2021/11/24 04:16:24;;;;;;;27.90;18.80;;;;;20.60;101435.00;;;;2056099;28;20208;-47
2021/11/24 04:17:25;;;;;;;29.43;19.53;;;;;20.70;101432.00;;;;2055442;28;20231;-48
2021/11/24 04:18:25;;;;;;;28.90;19.37;;;;;20.60;101431.00;;;;2055904;28;20451;-47
2021/11/24 04:19:25;;;;;;;27.27;18.20;;;;;20.60;101430.00;;;;2056038;28;20608;-47
2021/11/24 04:20:26;;;;;;;30.20;18.57;;;;;20.60;101423.00;;;;2054706;28;20200;-48
2021/11/24 04:21:26;;;;;;;28.93;18.93;;;;;20.60;101437.00;;;;2055417;28;20208;-48
2021/11/24 04:22:27;;;;;;;27.80;18.37;;;;;20.70;101429.00;;;;2055477;28;20208;-48
2021/11/24 04:23:27;;;;;;;27.90;18.57;;;;;20.60;101424.00;;;;2055196;28;20206;-48
2021/11/24 04:24:27;;;;;;;33.17;18.30;;;;;20.70;101429.00;;;;2053735;28;20211;-48
2021/11/24 04:25:28;;;;;;;25.87;18.33;;;;;20.60;101424.00;;;;2054932;28;20286;-48
2021/11/24 04:26:29;;;;;;;25.80;18.40;;;;;20.60;101426.00;;;;2051827;28;20773;-48
2021/11/24 04:27:29;;;;;;;29.33;18.70;;;;;20.60;101424.00;;;;2052073;28;20692;-48
2021/11/24 04:28:29;;;;;;;27.87;17.90;;;;;20.60;101420.00;;;;2055329;28;20276;-47
2021/11/24 04:29:30;;;;;;;30.67;18.83;;;;;20.60;101426.00;;;;2055223;28;20215;-47
2021/11/24 04:30:30;;;;;;;27.60;18.33;;;;;20.60;101424.00;;;;2053788;28;20219;-47
2021/11/24 04:31:31;;;;;;;26.03;19.20;;;;;20.60;101418.00;;;;2054850;28;20695;-48
2021/11/24 04:32:32;;;;;;;27.00;19.27;;;;;20.60;101423.00;;;;2054732;28;20656;-48
2021/11/24 04:33:32;;;;;;;30.30;18.37;;;;;20.60;101423.00;;;;2055410;28;20506;-48
2021/11/24 04:34:33;;;;;;;26.53;18.10;;;;;20.60;101428.00;;;;2055515;28;20211;-47
2021/11/24 04:35:33;;;;;;;29.80;18.20;;;;;20.60;101425.00;;;;2055579;28;20211;-48
2021/11/24 04:36:33;;;;;;;27.53;18.40;;;;;20.60;101419.00;;;;2054244;28;20282;-48
2021/11/24 04:37:34;;;;;;;30.90;18.83;;;;;20.60;101422.00;;;;2055571;28;20215;-48
2021/11/24 04:38:34;;;;;;;29.47;18.53;;;;;20.60;101424.00;;;;2055571;28;20215;-48
2021/11/24 04:39:35;;;;;;;30.37;19.83;;;;;20.60;101417.00;;;;2055661;28;20243;-48
2021/11/24 04:40:35;;;;;;;29.80;18.90;;;;;20.60;101412.00;;;;2054952;28;20286;-46
2021/11/24 04:41:36;;;;;;;27.57;18.00;;;;;20.60;101415.00;;;;2055853;28;20221;-47
2021/11/24 04:42:38;;;;;;;32.92;19.40;;;;;20.60;101416.00;;;;2055642;28;20727;-48
2021/11/24 04:43:45;;;;;;;28.17;17.73;;;;;20.60;101419.00;;;;2055860;28;20266;-48
2021/11/24 04:44:45;;;;;;;28.15;19.35;;;;;20.60;101419.00;;;;2055837;28;20483;-48
2021/11/24 04:45:47;;;;;;;27.40;18.50;;;;;20.60;101418.00;;;;2055836;28;20275;-47
2021/11/24 04:46:47;;;;;;;26.63;18.65;;;;;20.50;101411.00;;;;2055591;28;20310;-47
2021/11/24 04:47:47;;;;;;;33.27;20.17;;;;;20.50;101409.00;;;;2055830;28;20219;-47
2021/11/24 04:48:48;;;;;;;27.53;18.63;;;;;20.50;101416.00;;;;2055554;28;20214;-48
2021/11/24 04:49:49;;;;;;;27.92;18.05;;;;;20.50;101419.00;;;;2055427;28;20215;-48
2021/11/24 04:50:49;;;;;;;29.03;19.73;;;;;20.50;101427.00;;;;2054126;28;20302;-48
2021/11/24 04:51:49;;;;;;;29.67;19.10;;;;;20.50;101409.00;;;;2055711;28;20224;-48
2021/11/24 04:52:51;;;;;;;30.80;20.67;;;;;20.50;101414.00;;;;2055539;28;20212;-46
2021/11/24 04:53:51;;;;;;;31.92;18.00;;;;;20.50;101416.00;;;;2055508;28;20215;-47